sensor_id;sensor_type;location;lat;lon;timestamp;pressure;altitude;pressure_sealevel;temperature;humidity
55066;BME280;40964;42.114;24.220;2023-05-11T00:00:01;98268.22;;;9.44;93.30
55066;BME280;40964;42.114;24.220;2023-05-11T00:02:27;98261.13;;;9.37;93.22
55066;BME280;40964;42.114;24.220;2023-05-11T00:04:53;98271.53;;;9.18;92.41
55066;BME280;40964;42.114;24.220;2023-05-11T00:07:19;98269.94;;;9.17;93.19
55066;BME280;40964;42.114;24.220;2023-05-11T00:09:45;98275.59;;;9.20;93.50
55066;BME280;40964;42.114;24.220;2023-05-11T00:12:10;98269.13;;;9.23;93.72
55066;BME280;40964;42.114;24.220;2023-05-11T00:14:36;98273.59;;;9.29;94.44
55066;BME280;40964;42.114;24.220;2023-05-11T00:17:02;98273.59;;;9.29;93.70
55066;BME280;40964;42.114;24.220;2023-05-11T00:19:28;98271.41;;;9.39;94.58
55066;BME280;40964;42.114;24.220;2023-05-11T00:21:56;98271.97;;;9.34;94.40
55066;BME280;40964;42.114;24.220;2023-05-11T00:24:22;98275.66;;;9.40;94.28
55066;BME280;40964;42.114;24.220;2023-05-11T00:26:48;98266.38;;;9.37;94.14
55066;BME280;40964;42.114;24.220;2023-05-11T00:29:13;98282.66;;;9.20;94.63
55066;BME280;40964;42.114;24.220;2023-05-11T00:31:39;98275.69;;;9.05;95.11
55066;BME280;40964;42.114;24.220;2023-05-11T00:34:04;98274.31;;;9.09;95.12
55066;BME280;40964;42.114;24.220;2023-05-11T00:36:30;98269.94;;;9.17;95.62
55066;BME280;40964;42.114;24.220;2023-05-11T00:38:55;98274.38;;;9.23;95.73
55066;BME280;40964;42.114;24.220;2023-05-11T00:41:21;98270.75;;;9.24;94.07
55066;BME280;40964;42.114;24.220;2023-05-11T00:43:46;98265.53;;;9.30;93.82
55066;BME280;40964;42.114;24.220;2023-05-11T00:46:12;98268.78;;;9.39;94.09
55066;BME280;40964;42.114;24.220;2023-05-11T00:48:37;98268.56;;;9.34;95.20
55066;BME280;40964;42.114;24.220;2023-05-11T00:51:03;98271.75;;;9.23;96.65
55066;BME280;40964;42.114;24.220;2023-05-11T00:53:28;98261.63;;;9.13;96.58
55066;BME280;40964;42.114;24.220;2023-05-11T00:55:54;98270.28;;;9.14;96.67
55066;BME280;40964;42.114;24.220;2023-05-11T00:58:19;98271.91;;;9.15;96.83
55066;BME280;40964;42.114;24.220;2023-05-11T01:00:45;98273.31;;;9.10;96.99
55066;BME280;40964;42.114;24.220;2023-05-11T01:03:14;98272.34;;;9.18;97.85
55066;BME280;40964;42.114;24.220;2023-05-11T01:05:44;98256.16;;;9.08;98.00
55066;BME280;40964;42.114;24.220;2023-05-11T01:08:27;98276.16;;;9.16;98.66
55066;BME280;40964;42.114;24.220;2023-05-11T01:11:21;98254.75;;;9.12;100.00
55066;BME280;40964;42.114;24.220;2023-05-11T01:13:52;98275.97;;;9.17;100.00
55066;BME280;40964;42.114;24.220;2023-05-11T01:16:21;98272.16;;;9.20;100.00
55066;BME280;40964;42.114;24.220;2023-05-11T01:19:05;98276.16;;;9.16;100.00
55066;BME280;40964;42.114;24.220;2023-05-11T01:21:35;98278.41;;;9.19;100.00
55066;BME280;40964;42.114;24.220;2023-05-11T01:24:24;98281.22;;;9.24;100.00
55066;BME280;40964;42.114;24.220;2023-05-11T01:30:10;98291.25;;;9.07;100.00
55066;BME280;40964;42.114;24.220;2023-05-11T01:32:37;98284.53;;;8.91;100.00
55066;BME280;40964;42.114;24.220;2023-05-11T01:35:12;98290.59;;;8.92;100.00
55066;BME280;40964;42.114;24.220;2023-05-11T01:37:42;98290.13;;;8.88;100.00
55066;BME280;40964;42.114;24.220;2023-05-11T01:40:16;98286.44;;;8.76;100.00
55066;BME280;40964;42.114;24.220;2023-05-11T01:42:46;98292.34;;;8.85;100.00
55066;BME280;40964;42.114;24.220;2023-05-11T01:47:52;98282.63;;;8.78;100.00
55066;BME280;40964;42.114;24.220;2023-05-11T01:50:21;98293.78;;;8.87;100.00
55066;BME280;40964;42.114;24.220;2023-05-11T01:52:48;98287.34;;;8.90;100.00
55066;BME280;40964;42.114;24.220;2023-05-11T01:55:16;98294.38;;;8.89;100.00
55066;BME280;40964;42.114;24.220;2023-05-11T01:57:44;98292.34;;;8.85;100.00
55066;BME280;40964;42.114;24.220;2023-05-11T02:00:11;98286.16;;;8.92;100.00
55066;BME280;40964;42.114;24.220;2023-05-11T02:02:37;98288.31;;;8.89;100.00
55066;BME280;40964;42.114;24.220;2023-05-11T02:05:04;98295.16;;;8.83;100.00
55066;BME280;40964;42.114;24.220;2023-05-11T02:07:31;98295.38;;;8.81;100.00
55066;BME280;40964;42.114;24.220;2023-05-11T02:09:59;98293.66;;;8.67;100.00
55066;BME280;40964;42.114;24.220;2023-05-11T02:12:25;98289.81;;;8.63;100.00
55066;BME280;40964;42.114;24.220;2023-05-11T02:14:52;98288.00;;;8.64;100.00
55066;BME280;40964;42.114;24.220;2023-05-11T02:17:20;98291.41;;;8.64;100.00
55066;BME280;40964;42.114;24.220;2023-05-11T02:19:47;98294.03;;;8.64;100.00
55066;BME280;40964;42.114;24.220;2023-05-11T02:22:13;98276.19;;;8.46;100.00
55066;BME280;40964;42.114;24.220;2023-05-11T02:24:40;98287.88;;;8.50;100.00
55066;BME280;40964;42.114;24.220;2023-05-11T02:27:06;98290.97;;;8.61;100.00
55066;BME280;40964;42.114;24.220;2023-05-11T02:29:32;98280.75;;;8.66;100.00
55066;BME280;40964;42.114;24.220;2023-05-11T02:32:07;98282.34;;;8.67;100.00
55066;BME280;40964;42.114;24.220;2023-05-11T02:34:46;98275.03;;;8.56;100.00
55066;BME280;40964;42.114;24.220;2023-05-11T02:37:17;98278.59;;;8.48;100.00
55066;BME280;40964;42.114;24.220;2023-05-11T02:39:47;98274.59;;;8.52;100.00
55066;BME280;40964;42.114;24.220;2023-05-11T02:42:18;98285.47;;;8.49;100.00
55066;BME280;40964;42.114;24.220;2023-05-11T02:44:52;98279.13;;;8.37;100.00
55066;BME280;40964;42.114;24.220;2023-05-11T02:47:20;98280.34;;;8.41;100.00
55066;BME280;40964;42.114;24.220;2023-05-11T02:49:48;98283.56;;;8.36;100.00
55066;BME280;40964;42.114;24.220;2023-05-11T02:52:19;98283.16;;;8.39;100.00
55066;BME280;40964;42.114;24.220;2023-05-11T02:54:47;98284.19;;;8.38;100.00
55066;BME280;40964;42.114;24.220;2023-05-11T02:57:14;98274.31;;;8.19;100.00
55066;BME280;40964;42.114;24.220;2023-05-11T02:59:40;98284.97;;;8.17;100.00
55066;BME280;40964;42.114;24.220;2023-05-11T03:02:05;98294.28;;;8.20;100.00
55066;BME280;40964;42.114;24.220;2023-05-11T03:04:31;98291.03;;;8.18;100.00
55066;BME280;40964;42.114;24.220;2023-05-11T03:06:57;98252.69;;;7.89;100.00
55066;BME280;40964;42.114;24.220;2023-05-11T03:09:22;98291.03;;;8.18;100.00
55066;BME280;40964;42.114;24.220;2023-05-11T03:11:48;98295.09;;;8.20;100.00
55066;BME280;40964;42.114;24.220;2023-05-11T03:14:14;98293.09;;;8.22;100.00
55066;BME280;40964;42.114;24.220;2023-05-11T03:16:40;98277.69;;;8.13;100.00
55066;BME280;40964;42.114;24.220;2023-05-11T03:19:06;98278.75;;;8.18;100.00
55066;BME280;40964;42.114;24.220;2023-05-11T03:21:33;98272.38;;;8.06;100.00
55066;BME280;40964;42.114;24.220;2023-05-11T03:23:59;98292.88;;;8.24;100.00
55066;BME280;40964;42.114;24.220;2023-05-11T03:26:26;98280.84;;;8.30;100.00
55066;BME280;40964;42.114;24.220;2023-05-11T03:28:55;98289.84;;;8.42;100.00
55066;BME280;40964;42.114;24.220;2023-05-11T03:31:22;98295.84;;;8.36;100.00
55066;BME280;40964;42.114;24.220;2023-05-11T03:33:47;98293.84;;;8.38;100.00
55066;BME280;40964;42.114;24.220;2023-05-11T03:36:13;98291.22;;;8.38;100.00
55066;BME280;40964;42.114;24.220;2023-05-11T03:38:40;98293.88;;;8.44;100.00
55066;BME280;40964;42.114;24.220;2023-05-11T03:41:06;98287.81;;;8.44;100.00
55066;BME280;40964;42.114;24.220;2023-05-11T03:43:33;98293.31;;;8.49;100.00
55066;BME280;40964;42.114;24.220;2023-05-11T03:46:01;98290.03;;;8.40;100.00
55066;BME280;40964;42.114;24.220;2023-05-11T03:48:28;98302.75;;;8.43;100.00
55066;BME280;40964;42.114;24.220;2023-05-11T03:50:54;98297.91;;;8.40;100.00
55066;BME280;40964;42.114;24.220;2023-05-11T03:53:20;98298.47;;;8.36;100.00
55066;BME280;40964;42.114;24.220;2023-05-11T03:55:46;98308.41;;;8.25;100.00
55066;BME280;40964;42.114;24.220;2023-05-11T03:58:11;98312.00;;;8.18;100.00
55066;BME280;40964;42.114;24.220;2023-05-11T04:00:40;98296.53;;;8.02;100.00
55066;BME280;40964;42.114;24.220;2023-05-11T04:03:07;98298.88;;;7.96;100.00
55066;BME280;40964;42.114;24.220;2023-05-11T04:05:32;98308.75;;;7.94;100.00
55066;BME280;40964;42.114;24.220;2023-05-11T04:07:58;98307.88;;;7.87;100.00
55066;BME280;40964;42.114;24.220;2023-05-11T04:10:24;98270.59;;;7.64;100.00
55066;BME280;40964;42.114;24.220;2023-05-11T04:12:50;98296.38;;;7.88;100.00
55066;BME280;40964;42.114;24.220;2023-05-11T04:15:17;98307.38;;;7.98;100.00
55066;BME280;40964;42.114;24.220;2023-05-11T04:17:42;98310.66;;;8.07;100.00
55066;BME280;40964;42.114;24.220;2023-05-11T04:20:08;98315.97;;;8.14;100.00
55066;BME280;40964;42.114;24.220;2023-05-11T04:22:33;98307.13;;;8.15;100.00
55066;BME280;40964;42.114;24.220;2023-05-11T04:24:59;98312.03;;;8.24;100.00
55066;BME280;40964;42.114;24.220;2023-05-11T04:27:24;98308.41;;;8.25;100.00
55066;BME280;40964;42.114;24.220;2023-05-11T04:29:49;98308.88;;;8.29;100.00
55066;BME280;40964;42.114;24.220;2023-05-11T04:32:15;98320.78;;;8.32;100.00
55066;BME280;40964;42.114;24.220;2023-05-11T04:34:40;98309.53;;;8.16;100.00
55066;BME280;40964;42.114;24.220;2023-05-11T04:37:06;98312.44;;;8.21;100.00
55066;BME280;40964;42.114;24.220;2023-05-11T04:39:35;98314.72;;;8.31;100.00
55066;BME280;40964;42.114;24.220;2023-05-11T04:42:00;98308.88;;;8.29;100.00
55066;BME280;40964;42.114;24.220;2023-05-11T04:44:26;98316.13;;;8.27;100.00
55066;BME280;40964;42.114;24.220;2023-05-11T04:46:55;98307.56;;;8.18;100.00
55066;BME280;40964;42.114;24.220;2023-05-11T04:49:21;98299.03;;;8.10;100.00
55066;BME280;40964;42.114;24.220;2023-05-11T04:51:46;98258.03;;;7.81;100.00
55066;BME280;40964;42.114;24.220;2023-05-11T04:54:12;98306.25;;;8.08;100.00
55066;BME280;40964;42.114;24.220;2023-05-11T04:56:37;98306.75;;;8.18;100.00
55066;BME280;40964;42.114;24.220;2023-05-11T04:59:08;98325.81;;;8.33;100.00
55066;BME280;40964;42.114;24.220;2023-05-11T05:01:33;98331.06;;;8.33;100.00
55066;BME280;40964;42.114;24.220;2023-05-11T05:03:59;98330.91;;;8.35;100.00
55066;BME280;40964;42.114;24.220;2023-05-11T05:06:25;98330.19;;;8.26;100.00
55066;BME280;40964;42.114;24.220;2023-05-11T05:08:50;98342.19;;;8.35;100.00
55066;BME280;40964;42.114;24.220;2023-05-11T05:11:15;98336.31;;;8.33;100.00
55066;BME280;40964;42.114;24.220;2023-05-11T05:13:42;98333.53;;;8.35;100.00
55066;BME280;40964;42.114;24.220;2023-05-11T05:16:07;98338.69;;;8.28;100.00
55066;BME280;40964;42.114;24.220;2023-05-11T05:18:33;98343.94;;;8.28;100.00
55066;BME280;40964;42.114;24.220;2023-05-11T05:20:58;98335.50;;;8.33;100.00
55066;BME280;40964;42.114;24.220;2023-05-11T05:23:24;98329.72;;;8.37;100.00
55066;BME280;40964;42.114;24.220;2023-05-11T05:25:50;98338.00;;;8.41;100.00
55066;BME280;40964;42.114;24.220;2023-05-11T05:28:15;98336.81;;;8.43;100.00
55066;BME280;40964;42.114;24.220;2023-05-11T05:30:40;98342.72;;;8.45;100.00
55066;BME280;40964;42.114;24.220;2023-05-11T05:33:06;98343.75;;;8.51;100.00
55066;BME280;40964;42.114;24.220;2023-05-11T05:35:31;98345.16;;;8.53;100.00
55066;BME280;40964;42.114;24.220;2023-05-11T05:37:57;98355.09;;;8.58;100.00
55066;BME280;40964;42.114;24.220;2023-05-11T05:40:22;98352.56;;;8.71;100.00
55066;BME280;40964;42.114;24.220;2023-05-11T05:42:48;98358.25;;;8.75;100.00
55066;BME280;40964;42.114;24.220;2023-05-11T05:45:13;98352.88;;;8.83;100.00
55066;BME280;40964;42.114;24.220;2023-05-11T05:47:39;98349.72;;;8.94;100.00
55066;BME280;40964;42.114;24.220;2023-05-11T05:50:06;98358.44;;;9.01;100.00
55066;BME280;40964;42.114;24.220;2023-05-11T05:52:31;98346.88;;;8.96;100.00
55066;BME280;40964;42.114;24.220;2023-05-11T05:54:56;98360.78;;;8.90;100.00
55066;BME280;40964;42.114;24.220;2023-05-11T05:57:22;98326.06;;;8.60;100.00
55066;BME280;40964;42.114;24.220;2023-05-11T05:59:48;98351.63;;;8.79;100.00
55066;BME280;40964;42.114;24.220;2023-05-11T06:02:14;98355.16;;;8.93;100.00
55066;BME280;40964;42.114;24.220;2023-05-11T06:04:39;98360.66;;;9.04;100.00
55066;BME280;40964;42.114;24.220;2023-05-11T06:07:06;98364.91;;;9.05;100.00
55066;BME280;40964;42.114;24.220;2023-05-11T06:09:31;98366.53;;;9.06;100.00
55066;BME280;40964;42.114;24.220;2023-05-11T06:11:56;98365.09;;;9.04;100.00
55066;BME280;40964;42.114;24.220;2023-05-11T06:14:22;98369.03;;;8.87;100.00
55066;BME280;40964;42.114;24.220;2023-05-11T06:16:48;98365.78;;;8.85;100.00
55066;BME280;40964;42.114;24.220;2023-05-11T06:19:13;98367.16;;;8.80;100.00
55066;BME280;40964;42.114;24.220;2023-05-11T06:21:40;98377.41;;;8.75;100.00
55066;BME280;40964;42.114;24.220;2023-05-11T06:24:10;98373.03;;;8.82;100.00
55066;BME280;40964;42.114;24.220;2023-05-11T06:26:36;98363.59;;;8.88;100.00
55066;BME280;40964;42.114;24.220;2023-05-11T06:29:01;98362.16;;;8.86;100.00
55066;BME280;40964;42.114;24.220;2023-05-11T06:31:27;98366.66;;;8.92;100.00
55066;BME280;40964;42.114;24.220;2023-05-11T06:33:53;98374.47;;;8.85;100.00
55066;BME280;40964;42.114;24.220;2023-05-11T06:36:19;98324.91;;;8.69;100.00
55066;BME280;40964;42.114;24.220;2023-05-11T06:38:44;98370.69;;;8.94;100.00
55066;BME280;40964;42.114;24.220;2023-05-11T06:41:09;98374.94;;;8.95;100.00
55066;BME280;40964;42.114;24.220;2023-05-11T06:43:36;98371.16;;;9.04;100.00
55066;BME280;40964;42.114;24.220;2023-05-11T06:46:02;98378.50;;;9.16;100.00
55066;BME280;40964;42.114;24.220;2023-05-11T06:48:28;98379.16;;;9.24;100.00
55066;BME280;40964;42.114;24.220;2023-05-11T06:50:54;98359.78;;;9.25;100.00
55066;BME280;40964;42.114;24.220;2023-05-11T06:53:20;98370.31;;;9.32;100.00
55066;BME280;40964;42.114;24.220;2023-05-11T06:55:46;98367.84;;;9.24;100.00
55066;BME280;40964;42.114;24.220;2023-05-11T06:58:12;98373.88;;;9.18;100.00
55066;BME280;40964;42.114;24.220;2023-05-11T07:00:38;98371.31;;;9.31;100.00
55066;BME280;40964;42.114;24.220;2023-05-11T07:03:03;98366.97;;;9.45;100.00
55066;BME280;40964;42.114;24.220;2023-05-11T07:05:29;98375.69;;;9.58;100.00
55066;BME280;40964;42.114;24.220;2023-05-11T07:07:55;98376.75;;;9.64;100.00
55066;BME280;40964;42.114;24.220;2023-05-11T07:10:20;98373.88;;;9.59;98.83
55066;BME280;40964;42.114;24.220;2023-05-11T07:12:46;98360.78;;;9.65;100.00
55066;BME280;40964;42.114;24.220;2023-05-11T07:15:11;98357.41;;;9.85;99.01
55066;BME280;40964;42.114;24.220;2023-05-11T07:17:37;98368.13;;;9.83;97.37
55066;BME280;40964;42.114;24.220;2023-05-11T07:20:02;98374.00;;;9.92;97.68
55066;BME280;40964;42.114;24.220;2023-05-11T07:22:28;98370.59;;;10.05;98.06
55066;BME280;40964;42.114;24.220;2023-05-11T07:24:53;98361.13;;;10.10;95.92
55066;BME280;40964;42.114;24.220;2023-05-11T07:27:19;98360.72;;;10.13;96.28
55066;BME280;40964;42.114;24.220;2023-05-11T07:29:44;98366.56;;;10.09;95.99
55066;BME280;40964;42.114;24.220;2023-05-11T07:32:10;98370.59;;;9.98;97.14
55066;BME280;40964;42.114;24.220;2023-05-11T07:34:35;98371.19;;;10.00;96.33
55066;BME280;40964;42.114;24.220;2023-05-11T07:37:00;98360.91;;;10.12;96.38
55066;BME280;40964;42.114;24.220;2023-05-11T07:39:26;98366.22;;;10.32;96.69
55066;BME280;40964;42.114;24.220;2023-05-11T07:41:51;98359.38;;;10.37;95.15
55066;BME280;40964;42.114;24.220;2023-05-11T07:44:17;98367.88;;;10.52;95.04
55066;BME280;40964;42.114;24.220;2023-05-11T07:46:42;98371.13;;;10.61;93.87
55066;BME280;40964;42.114;24.220;2023-05-11T07:49:08;98374.16;;;10.71;91.61
55066;BME280;40964;42.114;24.220;2023-05-11T07:51:35;98365.66;;;10.83;90.48
55066;BME280;40964;42.114;24.220;2023-05-11T07:54:01;98375.75;;;10.92;89.65
55066;BME280;40964;42.114;24.220;2023-05-11T07:56:26;98367.66;;;11.07;89.11
55066;BME280;40964;42.114;24.220;2023-05-11T07:58:51;98370.66;;;11.17;88.69
55066;BME280;40964;42.114;24.220;2023-05-11T08:01:17;98363.94;;;11.28;89.40
55066;BME280;40964;42.114;24.220;2023-05-11T08:03:42;98373.44;;;11.35;89.26
55066;BME280;40964;42.114;24.220;2023-05-11T08:06:08;98376.84;;;11.49;87.84
55066;BME280;40964;42.114;24.220;2023-05-11T08:08:33;98370.31;;;11.65;86.51
55066;BME280;40964;42.114;24.220;2023-05-11T08:11:00;98369.84;;;11.75;85.76
55066;BME280;40964;42.114;24.220;2023-05-11T08:13:25;98371.28;;;11.77;85.67
55066;BME280;40964;42.114;24.220;2023-05-11T08:15:51;98371.31;;;11.64;81.73
55066;BME280;40964;42.114;24.220;2023-05-11T08:18:16;98380.03;;;11.71;84.50
55066;BME280;40964;42.114;24.220;2023-05-11T08:20:42;98370.41;;;11.97;86.37
55066;BME280;40964;42.114;24.220;2023-05-11T08:23:08;98359.03;;;12.34;84.50
55066;BME280;40964;42.114;24.220;2023-05-11T08:25:35;98367.69;;;12.66;81.75
55066;BME280;40964;42.114;24.220;2023-05-11T08:28:01;98371.84;;;12.81;81.52
55066;BME280;40964;42.114;24.220;2023-05-11T08:30:26;98361.88;;;12.83;78.30
55066;BME280;40964;42.114;24.220;2023-05-11T08:32:52;98380.31;;;12.64;82.60
55066;BME280;40964;42.114;24.220;2023-05-11T08:35:17;98374.44;;;12.87;79.15
55066;BME280;40964;42.114;24.220;2023-05-11T08:37:43;98375.06;;;12.83;76.91
55066;BME280;40964;42.114;24.220;2023-05-11T08:40:12;98370.38;;;12.85;79.66
55066;BME280;40964;42.114;24.220;2023-05-11T08:42:39;98371.22;;;12.60;80.18
55066;BME280;40964;42.114;24.220;2023-05-11T08:45:06;98376.63;;;12.65;79.98
55066;BME280;40964;42.114;24.220;2023-05-11T08:47:32;98378.72;;;12.57;79.88
55066;BME280;40964;42.114;24.220;2023-05-11T08:49:58;98371.38;;;12.65;80.52
55066;BME280;40964;42.114;24.220;2023-05-11T08:52:24;98370.16;;;12.68;80.27
55066;BME280;40964;42.114;24.220;2023-05-11T08:54:50;98372.50;;;12.51;79.72
55066;BME280;40964;42.114;24.220;2023-05-11T08:57:18;98365.69;;;12.37;81.79
55066;BME280;40964;42.114;24.220;2023-05-11T08:59:44;98377.75;;;12.26;80.38
55066;BME280;40964;42.114;24.220;2023-05-11T09:02:15;98368.59;;;11.97;81.86
55066;BME280;40964;42.114;24.220;2023-05-11T09:04:41;98370.06;;;11.86;80.52
55066;BME280;40964;42.114;24.220;2023-05-11T09:07:09;98368.25;;;11.74;81.16
55066;BME280;40964;42.114;24.220;2023-05-11T09:09:36;98365.38;;;11.88;82.44
55066;BME280;40964;42.114;24.220;2023-05-11T09:12:01;98363.31;;;11.97;82.68
55066;BME280;40964;42.114;24.220;2023-05-11T09:14:28;98360.09;;;11.88;81.09
55066;BME280;40964;42.114;24.220;2023-05-11T09:16:53;98363.63;;;11.62;81.82
55066;BME280;40964;42.114;24.220;2023-05-11T09:19:19;98352.88;;;11.64;84.99
55066;BME280;40964;42.114;24.220;2023-05-11T09:21:46;98352.66;;;11.65;83.76
55066;BME280;40964;42.114;24.220;2023-05-11T09:24:11;98353.66;;;11.78;83.89
55066;BME280;40964;42.114;24.220;2023-05-11T09:26:37;98340.31;;;11.66;80.45
55066;BME280;40964;42.114;24.220;2023-05-11T09:29:03;98337.88;;;11.71;79.77
55066;BME280;40964;42.114;24.220;2023-05-11T09:31:41;98342.09;;;11.79;82.45
55066;BME280;40964;42.114;24.220;2023-05-11T09:34:20;98333.91;;;11.93;80.54
55066;BME280;40964;42.114;24.220;2023-05-11T09:36:53;98333.91;;;11.93;81.15
55066;BME280;40964;42.114;24.220;2023-05-11T09:39:33;98337.75;;;11.98;79.99
55066;BME280;40964;42.114;24.220;2023-05-11T09:42:15;98337.97;;;11.96;81.39
55066;BME280;40964;42.114;24.220;2023-05-11T09:44:41;98344.47;;;11.93;80.42
55066;BME280;40964;42.114;24.220;2023-05-11T09:47:14;98341.41;;;11.97;82.06
55066;BME280;40964;42.114;24.220;2023-05-11T09:49:41;98335.34;;;11.96;81.01
55066;BME280;40964;42.114;24.220;2023-05-11T09:52:11;98339.44;;;11.85;81.74
55066;BME280;40964;42.114;24.220;2023-05-11T09:54:44;98334.59;;;11.82;81.83
55066;BME280;40964;42.114;24.220;2023-05-11T09:57:27;98336.50;;;12.00;82.10
55066;BME280;40964;42.114;24.220;2023-05-11T09:59:53;98330.34;;;12.13;82.72
55066;BME280;40964;42.114;24.220;2023-05-11T10:02:26;98328.22;;;12.28;82.90
55066;BME280;40964;42.114;24.220;2023-05-11T10:04:54;98332.25;;;12.31;78.51
55066;BME280;40964;42.114;24.220;2023-05-11T10:10:06;98325.69;;;12.65;78.92
55066;BME280;40964;42.114;24.220;2023-05-11T10:12:33;98319.13;;;12.74;77.30
55066;BME280;40964;42.114;24.220;2023-05-11T10:15:09;98316.88;;;12.77;77.40
55066;BME280;40964;42.114;24.220;2023-05-11T10:17:35;98324.94;;;12.83;77.69
55066;BME280;40964;42.114;24.220;2023-05-11T10:20:02;98320.41;;;12.90;77.02
55066;BME280;40964;42.114;24.220;2023-05-11T10:22:29;98324.69;;;12.84;72.52
55066;BME280;40964;42.114;24.220;2023-05-11T10:24:55;98333.53;;;12.96;73.05
55066;BME280;40964;42.114;24.220;2023-05-11T10:27:22;98326.28;;;13.10;75.92
55066;BME280;40964;42.114;24.220;2023-05-11T10:29:49;98327.81;;;13.18;75.11
55066;BME280;40964;42.114;24.220;2023-05-11T10:32:16;98320.84;;;13.30;74.64
55066;BME280;40964;42.114;24.220;2023-05-11T10:34:43;98321.50;;;13.19;74.42
55066;BME280;40964;42.114;24.220;2023-05-11T10:37:11;98314.44;;;13.19;72.49
55066;BME280;40964;42.114;24.220;2023-05-11T10:39:38;98314.88;;;13.34;72.89
55066;BME280;40964;42.114;24.220;2023-05-11T10:42:14;98321.53;;;13.55;71.79
55066;BME280;40964;42.114;24.220;2023-05-11T11:01:43;98301.56;;;13.59;73.43
55066;BME280;40964;42.114;24.220;2023-05-11T11:04:13;98278.34;;;13.31;71.76
55066;BME280;40964;42.114;24.220;2023-05-11T11:06:40;98305.59;;;13.62;71.77
55066;BME280;40964;42.114;24.220;2023-05-11T11:09:08;98313.16;;;13.58;71.56
55066;BME280;40964;42.114;24.220;2023-05-11T11:11:44;98310.16;;;13.37;72.84
55066;BME280;40964;42.114;24.220;2023-05-11T11:14:12;98306.88;;;13.23;73.74
55066;BME280;40964;42.114;24.220;2023-05-11T11:16:39;98307.66;;;13.05;73.43
55066;BME280;40964;42.114;24.220;2023-05-11T11:21:56;98299.31;;;13.26;76.57
55066;BME280;40964;42.114;24.220;2023-05-11T11:27:06;98285.34;;;13.86;71.69
55066;BME280;40964;42.114;24.220;2023-05-11T11:29:36;98277.69;;;13.96;71.28
55066;BME280;40964;42.114;24.220;2023-05-11T11:34:46;98255.72;;;14.07;70.01
55066;BME280;40964;42.114;24.220;2023-05-11T11:37:13;98270.03;;;14.30;71.28
55066;BME280;40964;42.114;24.220;2023-05-11T11:42:14;98265.81;;;14.52;68.98
55066;BME280;40964;42.114;24.220;2023-05-11T11:44:42;98265.25;;;14.62;68.07
55066;BME280;40964;42.114;24.220;2023-05-11T11:49:53;98270.41;;;14.80;68.60
55066;BME280;40964;42.114;24.220;2023-05-11T11:54:50;98255.34;;;14.92;68.71
55066;BME280;40964;42.114;24.220;2023-05-11T11:57:42;98258.75;;;15.04;68.90
55066;BME280;40964;42.114;24.220;2023-05-11T12:00:12;98253.31;;;15.23;69.21
55066;BME280;40964;42.114;24.220;2023-05-11T12:02:42;98251.66;;;15.33;65.65
55066;BME280;40964;42.114;24.220;2023-05-11T12:05:11;98249.44;;;15.42;66.38
55066;BME280;40964;42.114;24.220;2023-05-11T12:07:41;98240.53;;;15.48;68.75
55066;BME280;40964;42.114;24.220;2023-05-11T12:10:07;98243.28;;;15.65;68.17
55066;BME280;40964;42.114;24.220;2023-05-11T12:12:37;98232.84;;;15.75;64.91
55066;BME280;40964;42.114;24.220;2023-05-11T12:15:03;98229.94;;;15.77;62.91
55066;BME280;40964;42.114;24.220;2023-05-11T12:17:30;98237.09;;;15.76;64.95
55066;BME280;40964;42.114;24.220;2023-05-11T12:20:14;98235.97;;;15.89;64.52
55066;BME280;40964;42.114;24.220;2023-05-11T12:22:41;98225.53;;;15.82;63.31
55066;BME280;40964;42.114;24.220;2023-05-11T12:25:07;98222.56;;;15.79;62.64
55066;BME280;40964;42.114;24.220;2023-05-11T12:27:45;98220.56;;;16.03;64.35
55066;BME280;40964;42.114;24.220;2023-05-11T12:30:18;98212.63;;;16.03;64.06
55066;BME280;40964;42.114;24.220;2023-05-11T12:32:44;98207.97;;;16.10;61.62
55066;BME280;40964;42.114;24.220;2023-05-11T12:35:10;98206.91;;;16.11;62.99
55066;BME280;40964;42.114;24.220;2023-05-11T12:37:40;98209.22;;;16.24;59.14
55066;BME280;40964;42.114;24.220;2023-05-11T12:40:09;98204.78;;;16.46;60.41
55066;BME280;40964;42.114;24.220;2023-05-11T12:42:35;98198.97;;;16.50;58.58
55066;BME280;40964;42.114;24.220;2023-05-11T12:45:02;98199.91;;;16.22;58.73
55066;BME280;40964;42.114;24.220;2023-05-11T12:47:28;98189.19;;;16.16;61.17
55066;BME280;40964;42.114;24.220;2023-05-11T12:49:54;98191.06;;;16.16;59.32
55066;BME280;40964;42.114;24.220;2023-05-11T12:52:22;98188.59;;;16.09;60.52
55066;BME280;40964;42.114;24.220;2023-05-11T12:54:49;98189.84;;;16.07;61.70
55066;BME280;40964;42.114;24.220;2023-05-11T12:57:25;98183.69;;;16.01;62.60
55066;BME280;40964;42.114;24.220;2023-05-11T13:00:10;98177.31;;;15.85;61.61
55066;BME280;40964;42.114;24.220;2023-05-11T13:02:50;98178.78;;;15.93;62.70
55066;BME280;40964;42.114;24.220;2023-05-11T13:05:16;98175.31;;;15.93;64.07
55066;BME280;40964;42.114;24.220;2023-05-11T13:07:43;98170.81;;;16.10;63.97
55066;BME280;40964;42.114;24.220;2023-05-11T13:10:10;98173.53;;;16.15;60.61
55066;BME280;40964;42.114;24.220;2023-05-11T13:12:47;98153.59;;;16.12;60.83
55066;BME280;40964;42.114;24.220;2023-05-11T13:15:12;98157.31;;;15.95;62.23
55066;BME280;40964;42.114;24.220;2023-05-11T13:17:39;98164.13;;;15.74;60.18
55066;BME280;40964;42.114;24.220;2023-05-11T13:20:26;98164.34;;;15.55;61.60
55066;BME280;40964;42.114;24.220;2023-05-11T13:25:28;98163.84;;;15.58;64.04
55066;BME280;40964;42.114;24.220;2023-05-11T13:27:53;98155.19;;;15.34;64.02
55066;BME280;40964;42.114;24.220;2023-05-11T13:30:20;98144.34;;;15.19;63.26
55066;BME280;40964;42.114;24.220;2023-05-11T13:32:46;98145.16;;;15.37;64.79
55066;BME280;40964;42.114;24.220;2023-05-11T13:35:11;98145.38;;;15.47;63.47